Date,TemperatureHighF,TemperatureAvgF,TemperatureLowF,DewpointHighF,DewpointAvgF,DewpointLowF,HumidityHigh,HumidityAvg,HumidityLow,PressureMaxIn,PressureMinIn,WindSpeedMaxMPH,WindSpeedAvgMPH,GustSpeedMaxMPH,PrecipitationSumIn
2013-1-1,75.0,64.1,54.5,58.9,56.4,52.2,94,77,56,30.22,30.04,13,3,18,0.00
2013-1-2,76.9,66.5,57.6,66.1,61.4,55.4,95,85,64,30.06,29.97,10,3,18,0.00
2013-1-3,68.4,62.1,55.7,63.9,60.0,53.0,96,93,84,30.19,30.03,11,3,18,0.11
2013-1-4,57.3,54.4,51.3,55.9,53.2,50.2,96,96,93,30.29,30.17,11,5,18,0.09
2013-1-5,70.5,58.7,47.4,59.7,53.1,45.2,93,82,68,30.31,30.19,8,4,18,0.00
2013-1-6,76.4,64.6,58.8,65.9,60.5,55.5,94,87,70,30.22,30.06,8,3,18,0.19
2013-1-7,66.3,59.1,51.7,57.6,54.4,47.3,95,85,72,30.24,30.13,11,5,18,0.06
2013-1-8,78.0,68.0,58.6,68.6,64.2,56.9,97,88,72,30.23,30.14,8,4,10,0.00
2013-1-9,79.1,71.4,66.5,70.4,67.7,65.3,97,89,69,30.31,30.20,7,3,11,0.01
2013-1-10,79.8,71.2,65.3,69.1,65.3,62.2,97,83,56,30.32,30.23,9,3,14,0.01
2013-1-11,80.3,70.3,61.2,68.1,63.8,59.5,96,81,58,30.26,30.15,10,3,13,0.00
2013-1-12,80.4,70.9,63.9,67.2,63.4,61.6,95,79,54,30.19,30.09,9,3,11,0.01
2013-1-13,78.7,69.9,63.1,65.9,63.0,60.8,95,80,55,30.17,30.07,7,2,11,0.01
2013-1-14,79.3,70.2,62.9,66.1,63.1,60.7,96,80,54,30.19,30.11,9,3,13,0.00
2013-1-15,80.0,71.5,64.1,66.9,64.0,61.2,95,79,53,30.15,30.05,9,3,12,0.00
2013-1-16,79.9,70.3,63.5,64.8,62.1,59.0,95,77,51,30.11,30.00,8,2,11,0.00
2013-1-17,73.5,62.0,49.9,67.2,56.9,42.5,95,84,68,30.12,29.98,17,9,20,0.01
2013-1-18,63.7,51.5,39.7,52.4,44.2,33.7,85,76,64,30.30,30.13,16,9,20,0.00
2013-1-19,71.0,60.6,52.0,59.1,54.4,48.6,93,81,65,30.30,30.16,11,6,14,0.00
2013-1-20,71.0,62.7,57.5,59.7,56.2,51.1,94,80,64,30.20,30.06,8,4,11,0.00
2013-1-21,72.0,64.4,58.1,59.0,54.7,49.9,85,71,58,30.10,30.00,7,2,9,0.00
2013-1-22,59.6,55.1,49.1,48.6,39.2,31.6,73,56,35,30.28,30.07,9,4,12,0.00
2013-1-23,66.2,53.1,40.9,43.6,35.1,30.2,81,54,28,30.38,30.28,8,2,10,0.00
2013-1-24,70.8,58.6,47.2,55.0,47.8,41.8,88,69,46,30.33,30.22,8,3,9,0.00
2013-1-25,72.9,61.8,52.0,55.8,51.4,46.9,95,72,44,30.31,30.17,7,2,7,0.00
2013-1-26,73.2,62.6,54.2,57.9,55.2,49.7,95,78,54,30.27,30.16,6,2,9,0.01
2013-1-27,77.0,64.6,54.7,61.4,57.7,53.1,96,80,52,30.32,30.23,11,2,12,0.00
2013-1-28,77.8,68.9,60.4,63.5,61.5,58.1,93,78,59,30.34,30.23,8,4,14,0.00
2013-1-29,81.1,71.0,63.9,67.9,64.3,62.0,96,81,54,30.25,30.09,11,5,14,0.00
2013-1-30,82.2,73.0,65.6,65.6,64.2,61.2,93,75,54,30.11,29.86,15,10,25,0.00
2013-1-31,70.6,56.3,49.2,64.8,40.0,24.8,92,58,26,30.25,29.87,16,7,26,0.05
2013-2-1,66.4,53.5,42.3,42.4,32.3,27.0,66,47,23,30.36,30.23,10,4,13,0.00
2013-2-2,68.6,54.7,39.8,44.8,37.7,34.4,82,56,30,30.32,30.15,6,2,10,0.00
2013-2-3,67.6,56.0,45.5,51.0,42.3,36.4,83,62,35,30.19,30.05,11,4,14,0.00
2013-2-4,66.1,56.0,46.2,45.8,40.0,32.7,87,59,31,30.13,30.04,8,2,13,0.00
2013-2-5,73.4,59.6,45.1,54.2,45.3,36.6,81,61,40,30.11,30.00,6,1,7,0.00
2013-2-6,74.1,65.6,58.0,62.8,57.2,52.2,87,75,60,30.12,30.03,6,2,6,0.00
2013-2-7,78.3,70.1,63.4,63.8,61.9,60.1,92,76,57,30.08,29.86,14,6,20,0.00
2013-2-8,75.7,66.8,58.6,64.4,59.3,55.8,91,78,54,30.09,29.87,12,6,14,0.00
2013-2-9,71.2,60.3,51.5,56.0,52.6,49.3,93,77,54,30.22,30.07,8,5,13,0.00
2013-2-10,75.9,65.7,55.9,59.4,55.5,50.8,84,71,51,30.27,30.16,12,6,13,0.00
2013-2-11,80.6,70.1,60.8,63.2,60.3,57.5,90,73,50,30.21,30.06,13,5,19,0.00
2013-2-12,82.2,71.9,63.6,67.1,63.4,61.0,95,77,49,30.09,29.92,12,5,16,0.00
2013-2-13,80.7,70.0,63.6,68.8,65.5,59.5,93,86,64,29.96,29.83,15,8,24,0.14
2013-2-14,63.9,59.5,53.7,61.2,56.0,52.3,95,89,75,30.06,29.93,9,4,13,0.01
2013-2-15,66.5,56.0,48.4,53.7,50.1,46.8,95,82,56,30.09,29.96,9,3,11,0.00
2013-2-16,64.0,55.0,47.1,49.8,43.3,24.6,91,67,41,30.13,29.91,16,7,19,0.01
2013-2-17,52.3,44.0,36.2,29.0,19.3,11.0,64,39,19,30.36,30.14,15,6,17,0.00
2013-2-18,65.6,50.2,35.6,46.1,32.9,17.7,73,53,32,30.39,30.22,10,4,12,0.00
2013-2-19,74.8,60.5,51.2,56.6,51.4,46.1,87,73,48,30.23,30.05,12,3,18,0.00
2013-2-20,69.9,60.5,55.4,59.1,53.5,48.0,91,78,57,30.15,30.05,8,3,11,0.00
2013-2-21,79.8,65.6,52.5,63.9,56.6,48.7,89,74,51,30.12,29.99,8,3,15,0.00
2013-2-22,83.4,72.8,64.4,68.7,65.0,61.6,95,79,50,30.08,29.98,12,5,18,0.00
2013-2-23,84.3,74.7,68.8,68.3,66.0,62.4,94,76,50,30.00,29.86,16,8,25,0.00
2013-2-24,75.9,69.8,64.3,68.6,66.0,60.7,94,88,76,29.96,29.86,9,4,12,0.01
2013-2-25,83.1,72.2,64.3,69.8,65.2,61.0,95,81,53,29.93,29.76,11,4,15,0.00
2013-2-26,74.3,69.3,64.5,70.0,64.7,59.6,94,86,66,29.86,29.72,13,7,19,0.12
2013-2-27,71.0,62.7,56.3,61.2,53.1,48.8,89,72,48,29.97,29.86,12,8,18,0.03
2013-2-28,67.5,57.4,53.9,52.4,48.9,46.1,85,74,50,29.99,29.89,12,6,22,0.00
2013-3-1,63.4,54.2,48.1,48.5,40.2,33.9,79,60,35,30.01,29.90,12,7,22,0.00
2013-3-2,55.2,49.4,41.9,37.6,33.3,27.6,66,55,35,30.04,29.95,20,9,28,0.01
2013-3-3,49.0,43.5,39.2,33.3,30.9,28.6,75,61,48,30.15,30.00,14,9,21,0.00
2013-3-4,63.0,50.4,39.0,38.1,29.8,21.5,78,49,25,30.24,30.11,8,4,20,0.00
2013-3-5,73.0,59.3,46.1,56.8,45.0,38.0,85,61,36,30.19,29.99,12,6,20,0.00
2013-3-6,64.1,57.1,48.0,60.1,39.6,26.5,92,56,24,30.15,29.91,14,10,22,0.00
2013-3-7,64.7,52.3,40.1,44.6,36.7,31.0,73,57,35,30.23,30.12,10,5,14,0.00
2013-3-8,74.1,58.5,44.3,45.6,41.6,36.7,89,58,27,30.23,30.11,5,2,11,0.00
2013-3-9,73.0,59.4,46.8,52.0,47.4,42.0,92,68,37,30.24,30.14,8,3,13,0.00
2013-3-10,75.7,64.2,53.3,56.1,53.4,50.4,91,70,45,30.19,30.08,11,4,16,0.00
2013-3-11,75.3,67.1,58.0,60.6,56.8,53.7,86,71,54,30.12,29.89,12,5,16,0.00
2013-3-12,69.4,65.1,57.2,65.0,60.7,54.0,93,86,75,30.03,29.85,13,8,18,0.05
2013-3-13,72.1,61.0,49.2,53.9,40.3,29.7,89,51,21,30.17,30.02,11,6,19,0.00
2013-3-14,64.7,53.9,44.9,44.7,33.3,28.1,69,47,26,30.28,30.16,11,6,14,0.00
2013-3-15,70.8,62.2,43.0,46.6,38.3,31.3,92,45,28,30.29,30.14,7,3,11,0.00
2013-3-16,76.8,61.5,48.5,50.5,45.2,41.6,92,60,29,30.18,30.03,9,4,12,0.00
2013-3-17,74.4,64.1,53.3,60.4,53.1,47.2,95,70,41,30.14,29.99,12,3,16,0.00
2013-3-18,76.9,69.3,62.2,65.0,62.0,59.2,92,79,62,30.07,29.89,11,4,17,0.03
2013-3-19,82.6,71.6,62.5,64.2,61.2,57.6,94,72,45,30.03,29.89,8,3,11,0.00
2013-3-20,71.6,64.6,58.0,64.7,60.2,55.7,94,86,72,30.00,29.79,11,3,13,0.23
2013-3-21,68.6,57.9,49.3,56.1,41.3,25.2,95,60,20,29.98,29.87,11,6,17,0.02
2013-3-22,76.1,61.0,46.6,56.1,46.5,40.9,84,61,37,30.02,29.90,9,3,13,0.01
2013-3-23,81.9,71.0,61.6,71.1,64.5,53.1,94,81,62,29.98,29.77,15,6,18,0.00
2013-3-24,79.1,71.6,66.7,71.0,67.3,63.3,94,87,74,29.84,29.59,22,10,32,0.01
2013-3-25,69.1,62.3,55.1,63.6,44.7,29.5,92,57,23,30.04,29.70,12,9,19,0.00
2013-3-26,57.1,51.0,44.3,40.8,30.5,21.9,63,46,27,30.24,30.03,15,10,21,0.00
2013-3-27,61.4,49.2,38.0,40.5,31.3,26.2,70,52,27,30.32,30.20,9,5,18,0.00
2013-3-28,70.5,55.1,40.7,41.9,35.2,27.2,84,53,23,30.30,30.17,7,2,18,0.00
2013-3-29,73.3,59.5,45.6,45.8,38.3,29.1,86,51,20,30.33,30.18,6,2,18,0.00
2013-3-30,76.4,63.4,50.4,52.2,47.9,39.4,90,60,37,30.26,30.10,9,3,18,0.00
2013-3-31,80.2,68.7,59.3,57.4,53.2,46.0,83,60,31,30.17,29.98,12,5,19,0.00
2013-4-1,79.7,70.7,63.5,64.1,61.1,56.3,88,73,51,30.02,29.93,14,7,18,0.00
2013-4-2,82.2,70.6,62.3,62.8,55.2,46.5,93,64,32,30.09,29.99,7,3,18,0.00
2013-4-3,82.1,70.0,60.6,65.6,62.0,56.4,93,77,53,30.10,29.96,14,4,18,0.13
2013-4-4,72.3,69.3,67.3,67.6,65.6,63.5,95,88,81,30.02,29.87,18,5,27,0.01
2013-4-5,73.0,65.9,56.0,65.7,61.2,53.3,93,85,67,30.01,29.80,12,6,15,0.00
2013-4-6,73.7,62.9,51.8,57.5,54.4,49.3,92,75,55,30.15,30.00,11,6,16,0.00
2013-4-7,77.8,67.2,57.6,61.5,57.1,54.7,95,73,45,30.17,30.07,8,3,12,0.00
2013-4-8,82.7,71.8,61.5,63.1,59.4,53.6,90,68,40,30.14,30.05,7,3,15,0.00
2013-4-9,82.3,72.4,63.9,67.1,61.6,56.2,94,71,46,30.17,30.07,11,4,13,0.00
2013-4-10,85.7,76.5,62.8,68.6,63.3,59.2,88,66,43,30.13,29.98,8,4,14,0.00
2013-4-11,87.1,77.7,72.5,71.5,69.2,67.4,93,77,53,30.00,29.81,14,8,20,0.07
2013-4-12,82.0,76.5,73.4,72.8,71.0,69.4,93,83,68,29.90,29.81,14,7,20,0.01
2013-4-13,85.3,75.0,66.7,69.5,63.4,52.3,91,70,37,29.99,29.87,8,2,20,0.00
2013-4-14,85.6,73.3,65.8,72.4,65.7,57.1,89,78,61,29.99,29.83,12,4,30,0.03
2013-4-15,88.2,75.0,65.2,66.8,63.6,60.8,89,70,46,30.09,29.88,8,3,20,0.00
2013-4-16,85.1,74.2,66.2,69.5,66.2,63.0,95,78,57,30.16,30.05,10,4,20,0.00
2013-4-17,82.2,72.3,64.7,69.3,64.5,61.0,96,79,50,30.16,30.05,10,3,15,0.00
2013-4-18,86.8,76.0,66.1,69.7,65.3,59.1,95,72,43,30.07,29.94,8,2,15,0.00
2013-4-19,86.9,76.6,71.4,72.1,69.9,67.4,92,81,54,30.01,29.96,14,7,19,0.00
2013-4-22,69.5,64.3,62.7,64.8,60.9,59.5,90,89,85,30.10,30.02,12,8,18,0.00
2013-4-23,78.8,68.5,60.4,63.2,59.2,56.7,95,75,47,30.13,30.03,12,6,19,0.00
2013-4-24,83.2,73.0,57.9,63.2,59.0,53.9,94,64,37,30.15,30.06,7,3,19,0.00
2013-4-25,85.3,74.3,62.8,65.8,61.6,47.8,93,67,28,30.20,30.10,7,2,10,0.00
2013-4-26,85.2,75.2,67.4,65.8,63.9,61.0,86,69,45,30.25,30.15,11,3,16,0.00
2013-4-27,83.6,73.3,65.0,67.4,63.3,59.3,94,73,45,30.24,30.10,10,4,16,0.00
2013-4-28,80.8,72.5,65.7,67.0,64.2,62.5,93,76,55,30.14,29.99,10,4,15,0.00
2013-4-29,83.2,74.5,66.5,67.9,64.1,62.1,90,71,52,30.03,29.90,10,3,15,0.01
2013-4-30,85.9,72.8,66.7,68.7,65.3,58.0,95,80,39,30.01,29.90,14,2,17,0.16
2013-5-1,78.1,71.2,66.8,69.3,67.0,64.9,95,87,69,30.03,29.94,8,4,12,0.04
2013-5-2,69.0,67.8,65.0,67.4,66.1,63.2,96,95,92,29.97,29.82,7,3,12,0.01
2013-5-3,76.2,69.9,67.0,68.5,66.7,64.2,96,90,74,29.83,29.73,15,6,22,0.01
2013-5-4,80.4,72.6,66.7,70.5,67.4,64.9,95,84,69,29.78,29.67,12,4,18,0.01
2013-5-5,77.0,67.9,58.0,67.7,54.1,46.1,90,64,36,29.92,29.74,13,8,19,0.00
2013-5-6,72.2,66.0,61.8,60.0,54.3,50.3,86,67,46,30.00,29.88,12,6,15,0.00
2013-5-7,75.4,66.8,57.2,60.6,56.2,52.5,89,70,51,30.05,29.95,14,6,19,0.00
2013-5-8,79.8,70.5,62.6,62.4,59.9,56.1,90,71,45,30.13,30.02,10,4,14,0.00
2013-5-9,83.4,73.2,64.3,65.3,61.5,57.8,91,69,42,30.15,30.06,6,2,14,0.00
2013-5-10,87.8,79.4,67.9,69.8,66.1,61.8,92,65,48,30.13,29.99,10,4,14,0.00
2013-5-11,86.1,76.3,69.9,72.0,68.4,65.4,89,77,58,30.05,29.96,14,4,22,0.00
2013-5-12,85.5,76.3,68.8,69.0,66.3,64.7,89,72,52,30.04,29.94,12,5,18,0.00
2013-5-13,80.7,72.4,65.9,67.0,55.9,45.7,89,60,33,30.13,30.00,10,5,13,0.00
2013-5-14,82.3,69.3,55.5,55.9,49.7,45.6,80,52,30,30.22,30.12,7,3,12,0.00
2013-5-15,84.1,72.1,60.4,61.2,56.7,51.9,87,61,35,30.22,30.08,7,2,10,0.00
2013-5-16,84.7,74.4,65.4,64.1,61.7,56.4,87,66,39,30.14,30.00,8,4,10,0.00
2013-5-17,87.1,77.7,68.4,67.7,64.5,61.0,87,65,42,30.11,30.03,8,4,11,0.00
2013-5-18,90.0,78.2,68.0,71.5,67.4,59.1,91,72,36,30.12,29.99,9,2,12,0.00
2013-5-19,86.4,76.7,69.2,74.3,69.4,63.8,88,79,61,30.09,29.98,13,4,17,0.01
2013-5-20,86.9,75.6,70.1,70.8,68.0,61.8,91,79,47,30.08,29.99,15,3,26,0.00
2013-5-21,79.8,73.8,69.5,71.2,69.1,67.3,95,86,71,30.04,29.94,9,2,12,0.01
2013-5-22,83.3,75.4,69.5,71.8,69.5,67.6,95,83,62,29.97,29.91,10,2,13,0.00
2013-5-23,89.0,77.8,70.1,76.6,70.0,64.8,95,79,52,29.99,29.90,13,2,17,0.01
2013-5-24,91.1,81.0,72.5,72.8,67.5,61.5,94,67,39,30.10,29.96,10,4,15,0.01
2013-5-25,84.8,75.7,67.2,67.3,62.2,56.5,93,65,42,30.20,30.07,11,4,15,0.00
2013-5-26,84.8,73.6,64.5,60.8,57.4,52.9,80,59,34,30.22,30.13,9,3,16,0.00
2013-5-27,84.6,74.2,64.0,64.1,60.9,55.4,88,66,38,30.19,30.10,9,4,15,0.00
2013-5-28,85.8,73.3,65.3,68.9,64.9,61.9,89,76,55,30.16,30.09,9,3,15,0.00
2013-6-10,89.9,83.7,77.9,74.0,72.3,70.4,85,70,54,30.09,30.00,13,3,13,0.00
2013-6-11,89.4,78.0,71.8,76.9,73.5,68.9,94,87,60,30.11,30.01,17,2,18,0.00
2013-6-12,93.6,82.1,73.0,75.8,72.4,68.8,94,75,46,30.08,29.98,7,2,11,0.00
2013-6-13,79.7,77.4,75.3,75.5,73.5,72.2,92,88,79,30.02,29.97,5,2,11,0.00
2013-6-14,88.4,84.6,80.6,75.3,73.0,70.5,83,69,57,29.92,29.83,12,8,16,0.00
2013-6-15,86.4,79.6,74.7,75.4,73.2,69.9,94,81,67,30.07,29.90,10,4,19,0.00
2013-6-16,88.7,80.1,75.3,76.8,73.4,70.2,90,81,62,30.09,30.01,9,2,16,0.00
2013-6-17,92.5,81.0,74.0,77.1,74.4,71.0,95,82,55,30.07,29.96,13,3,16,0.00
2013-6-18,89.2,82.2,74.8,75.2,73.5,71.8,91,76,59,30.05,29.94,8,4,16,0.00
2013-6-19,88.2,82.1,76.8,76.1,73.9,69.6,90,77,64,30.03,29.94,16,4,16,0.00
2013-6-20,93.3,79.8,73.4,75.1,72.3,69.9,94,80,47,30.08,30.00,12,2,18,0.00
2013-6-21,88.9,76.1,71.4,73.4,71.0,69.4,95,85,58,30.12,30.04,14,1,16,0.00
2013-6-22,88.6,76.8,70.2,74.5,71.2,68.4,95,84,55,30.12,30.06,9,2,16,0.00
2013-6-23,89.2,79.6,73.1,75.4,73.0,70.6,93,81,55,30.15,30.07,9,2,16,0.00
2013-6-24,91.0,81.6,73.9,74.8,72.6,68.6,93,76,48,30.19,30.08,8,2,16,0.00
2013-6-25,91.9,81.7,74.6,74.4,71.9,67.6,92,74,47,30.15,30.03,8,2,16,0.00
2013-6-26,91.6,79.9,74.8,75.4,72.8,67.3,92,80,45,30.08,30.00,11,3,16,0.00
2013-6-27,88.2,79.6,73.1,74.9,72.3,69.7,91,79,61,30.04,29.93,10,2,16,0.00
2013-6-28,87.5,80.8,76.1,76.9,74.0,69.1,90,80,60,29.96,29.83,16,5,16,0.00
2013-6-29,80.3,77.3,76.6,75.6,73.8,72.4,91,89,84,29.86,29.81,8,5,16,0.00
2013-7-2,82.8,78.6,75.4,76.4,72.5,71.5,91,82,74,30.09,30.02,15,5,20,0.00
2013-7-3,87.6,76.9,72.8,76.2,73.0,69.2,94,88,67,30.12,30.05,11,3,15,0.00
2013-7-4,88.9,78.1,72.6,75.6,72.0,69.4,95,83,57,30.16,30.07,14,4,19,0.00
2013-7-5,87.8,79.4,71.5,76.3,72.7,69.4,94,81,57,30.15,30.05,12,4,16,0.00
2013-7-6,89.7,80.6,74.1,74.8,72.9,70.4,93,79,55,30.12,30.04,10,4,15,0.00
2013-7-7,88.7,81.5,75.1,75.2,73.2,70.8,93,77,57,30.13,30.04,9,4,15,0.00
2013-7-8,89.5,81.3,74.3,75.6,73.2,71.3,94,78,56,30.16,30.07,7,2,15,0.00
2013-7-9,90.3,81.6,73.5,74.5,71.3,66.5,94,73,48,30.17,30.06,8,2,15,0.00
2013-7-10,89.6,79.0,72.2,75.6,72.0,69.0,93,80,56,30.10,29.96,13,2,15,0.00
2013-7-11,90.0,79.3,74.2,74.0,72.3,69.3,93,80,51,30.03,29.89,14,3,15,0.00
2013-7-12,77.5,76.8,76.2,73.5,72.4,72.0,89,86,85,29.94,29.91,3,2,15,0.00
2013-7-15,82.8,79.1,76.8,76.3,73.9,72.9,92,84,75,30.13,30.02,10,4,14,0.00
2013-7-16,87.6,79.0,73.3,74.5,72.2,70.9,94,81,60,30.16,30.10,13,3,17,0.00
2013-7-17,88.7,79.5,74.0,75.4,72.7,70.3,95,81,57,30.17,30.08,11,4,14,0.00
2013-7-18,85.7,78.4,73.5,74.2,72.1,69.6,93,82,60,30.12,30.04,12,3,20,0.00
2013-7-19,86.6,76.2,72.1,74.2,71.5,69.5,94,86,64,30.13,30.03,14,3,18,0.00
2013-7-20,87.7,76.8,72.7,76.9,72.6,70.5,94,88,64,30.10,30.01,12,3,12,0.00
2013-7-21,88.7,78.2,72.9,77.5,73.2,69.2,94,85,65,30.12,30.02,13,2,13,0.00
2013-7-22,86.7,77.9,73.7,76.5,73.4,69.2,93,86,69,30.12,30.04,12,3,18,0.00
2013-7-23,80.9,76.0,73.6,75.6,72.9,70.4,94,90,82,30.08,29.95,14,4,15,0.00
2013-7-24,84.0,78.0,71.8,76.8,74.1,69.3,93,88,79,29.99,29.86,11,6,14,0.00
2013-7-25,82.1,78.5,74.9,75.8,73.9,71.4,90,86,79,29.97,29.85,11,5,16,0.00
2013-7-26,92.3,81.3,75.2,76.6,74.1,70.5,93,80,53,30.00,29.93,9,2,10,0.00
2013-7-27,79.4,76.6,74.9,75.4,73.8,72.7,94,91,86,29.99,29.94,3,0,6,0.00
2013-7-31,91.0,82.8,71.1,75.7,72.5,67.7,91,72,53,30.10,30.00,17,5,17,0.00
2013-8-1,89.3,78.0,73.3,75.3,72.2,69.3,93,83,53,30.06,29.96,9,2,12,0.00
2013-8-2,90.8,81.7,74.2,75.4,72.4,69.5,91,75,53,30.03,29.94,6,1,9,0.00
2013-8-3,88.3,80.2,76.0,76.1,73.7,71.5,90,81,61,30.08,29.99,15,4,16,0.00
2013-8-4,86.0,79.5,75.8,77.1,74.7,71.7,91,86,72,30.08,29.97,10,3,18,0.00
2013-8-5,89.9,81.2,75.2,78.3,75.4,71.3,91,83,61,30.01,29.90,12,3,12,0.00
2013-8-6,90.4,80.6,74.1,77.5,74.0,71.3,92,81,63,29.98,29.89,11,1,14,0.00
2013-8-7,91.3,81.5,76.4,77.0,74.9,72.6,92,81,55,29.98,29.91,9,2,12,0.00
2013-8-8,91.1,82.1,76.6,76.1,74.0,68.8,91,77,56,30.04,29.94,15,3,15,0.00
2013-8-9,89.7,80.1,76.0,76.5,73.8,72.6,90,82,60,30.06,29.97,11,2,14,0.00
2013-8-10,92.2,82.3,73.9,77.7,73.4,70.4,90,76,52,30.13,30.03,8,3,12,0.00
2013-8-11,94.4,83.3,76.4,76.4,74.0,69.9,91,75,46,30.15,30.05,7,2,11,0.00
2013-8-12,80.8,78.2,76.2,75.4,73.3,72.7,90,85,78,30.12,30.08,3,0,9,0.00
2013-9-10,85.8,79.7,75.0,72.1,71.1,69.4,87,76,59,30.08,30.03,10,3,14,0.00
2013-9-11,89.6,80.5,73.6,74.8,71.5,70.1,92,76,55,30.09,30.00,9,4,14,0.00